sensor_id;sensor_type;location;lat;lon;timestamp;P1;durP1;ratioP1;P2;durP2;ratioP2
37201;SDS011;37799;52.390;6.136;2024-03-02T00:01:57;3.20;;;0.80;;
37201;SDS011;37799;52.390;6.136;2024-03-02T00:04:23;4.15;;;0.93;;
37201;SDS011;37799;52.390;6.136;2024-03-02T00:06:50;2.65;;;0.60;;
37201;SDS011;37799;52.390;6.136;2024-03-02T00:09:17;4.18;;;0.93;;
37201;SDS011;37799;52.390;6.136;2024-03-02T00:11:43;4.47;;;0.88;;
37201;SDS011;37799;52.390;6.136;2024-03-02T00:14:08;3.85;;;0.70;;
37201;SDS011;37799;52.390;6.136;2024-03-02T00:16:34;2.22;;;0.70;;
37201;SDS011;37799;52.390;6.136;2024-03-02T00:19:04;2.75;;;0.60;;
37201;SDS011;37799;52.390;6.136;2024-03-02T00:21:30;3.23;;;0.63;;
37201;SDS011;37799;52.390;6.136;2024-03-02T00:23:56;2.88;;;0.55;;
37201;SDS011;37799;52.390;6.136;2024-03-02T00:26:22;3.00;;;0.60;;
37201;SDS011;37799;52.390;6.136;2024-03-02T00:28:47;3.55;;;0.55;;
37201;SDS011;37799;52.390;6.136;2024-03-02T00:31:15;4.57;;;0.60;;
37201;SDS011;37799;52.390;6.136;2024-03-02T00:36:06;3.20;;;0.70;;
37201;SDS011;37799;52.390;6.136;2024-03-02T00:38:32;2.28;;;0.70;;
37201;SDS011;37799;52.390;6.136;2024-03-02T00:40:59;2.17;;;0.50;;
37201;SDS011;37799;52.390;6.136;2024-03-02T00:46:06;3.08;;;0.50;;
37201;SDS011;37799;52.390;6.136;2024-03-02T00:48:31;3.22;;;0.60;;
37201;SDS011;37799;52.390;6.136;2024-03-02T00:50:56;1.58;;;0.30;;
37201;SDS011;37799;52.390;6.136;2024-03-02T00:53:23;3.83;;;0.50;;
37201;SDS011;37799;52.390;6.136;2024-03-02T00:55:51;2.53;;;0.40;;
37201;SDS011;37799;52.390;6.136;2024-03-02T00:58:16;2.65;;;0.40;;
37201;SDS011;37799;52.390;6.136;2024-03-02T01:00:42;2.28;;;0.40;;
37201;SDS011;37799;52.390;6.136;2024-03-02T01:03:07;2.75;;;0.50;;
37201;SDS011;37799;52.390;6.136;2024-03-02T01:05:32;3.85;;;0.50;;
37201;SDS011;37799;52.390;6.136;2024-03-02T01:07:58;2.03;;;0.43;;
37201;SDS011;37799;52.390;6.136;2024-03-02T01:10:23;2.05;;;0.38;;
37201;SDS011;37799;52.390;6.136;2024-03-02T01:12:50;1.67;;;0.40;;
37201;SDS011;37799;52.390;6.136;2024-03-02T01:15:16;3.42;;;0.60;;
37201;SDS011;37799;52.390;6.136;2024-03-02T01:17:41;2.47;;;0.45;;
37201;SDS011;37799;52.390;6.136;2024-03-02T01:20:07;1.42;;;0.30;;
37201;SDS011;37799;52.390;6.136;2024-03-02T01:22:33;1.98;;;0.40;;
37201;SDS011;37799;52.390;6.136;2024-03-02T01:24:58;2.13;;;0.30;;
37201;SDS011;37799;52.390;6.136;2024-03-02T01:27:24;2.42;;;0.40;;
37201;SDS011;37799;52.390;6.136;2024-03-02T01:29:49;1.75;;;0.30;;
37201;SDS011;37799;52.390;6.136;2024-03-02T01:32:14;1.73;;;0.30;;
37201;SDS011;37799;52.390;6.136;2024-03-02T01:34:40;1.73;;;0.40;;
37201;SDS011;37799;52.390;6.136;2024-03-02T01:37:06;2.63;;;0.55;;
37201;SDS011;37799;52.390;6.136;2024-03-02T01:39:31;2.13;;;0.30;;
37201;SDS011;37799;52.390;6.136;2024-03-02T01:41:56;2.85;;;0.57;;
37201;SDS011;37799;52.390;6.136;2024-03-02T01:44:22;3.72;;;0.40;;
37201;SDS011;37799;52.390;6.136;2024-03-02T01:46:47;2.35;;;0.38;;
37201;SDS011;37799;52.390;6.136;2024-03-02T01:49:12;3.22;;;0.47;;
37201;SDS011;37799;52.390;6.136;2024-03-02T01:51:38;2.92;;;0.70;;
37201;SDS011;37799;52.390;6.136;2024-03-02T01:54:03;2.35;;;0.40;;
37201;SDS011;37799;52.390;6.136;2024-03-02T01:56:28;1.33;;;0.15;;
37201;SDS011;37799;52.390;6.136;2024-03-02T01:58:54;1.65;;;0.30;;
37201;SDS011;37799;52.390;6.136;2024-03-02T02:01:19;3.17;;;0.40;;
37201;SDS011;37799;52.390;6.136;2024-03-02T02:03:44;2.55;;;0.40;;
37201;SDS011;37799;52.390;6.136;2024-03-02T02:06:10;2.35;;;0.32;;
37201;SDS011;37799;52.390;6.136;2024-03-02T02:08:36;6.65;;;1.08;;
37201;SDS011;37799;52.390;6.136;2024-03-02T02:11:02;1.45;;;0.40;;
37201;SDS011;37799;52.390;6.136;2024-03-02T02:13:28;9.40;;;0.50;;
37201;SDS011;37799;52.390;6.136;2024-03-02T02:15:53;2.22;;;0.50;;
37201;SDS011;37799;52.390;6.136;2024-03-02T02:18:18;3.47;;;0.80;;
37201;SDS011;37799;52.390;6.136;2024-03-02T02:20:44;5.07;;;0.82;;
37201;SDS011;37799;52.390;6.136;2024-03-02T02:23:09;4.15;;;0.73;;
37201;SDS011;37799;52.390;6.136;2024-03-02T02:25:34;3.40;;;0.60;;
37201;SDS011;37799;52.390;6.136;2024-03-02T02:28:00;3.45;;;0.55;;
37201;SDS011;37799;52.390;6.136;2024-03-02T02:30:26;2.60;;;0.50;;
37201;SDS011;37799;52.390;6.136;2024-03-02T02:32:53;2.03;;;0.47;;
37201;SDS011;37799;52.390;6.136;2024-03-02T02:35:19;5.40;;;0.68;;
37201;SDS011;37799;52.390;6.136;2024-03-02T02:37:45;2.60;;;0.52;;
37201;SDS011;37799;52.390;6.136;2024-03-02T02:40:11;2.90;;;0.60;;
37201;SDS011;37799;52.390;6.136;2024-03-02T02:42:37;1.30;;;0.30;;
37201;SDS011;37799;52.390;6.136;2024-03-02T02:45:03;3.35;;;0.93;;
37201;SDS011;37799;52.390;6.136;2024-03-02T02:47:29;2.53;;;0.60;;
37201;SDS011;37799;52.390;6.136;2024-03-02T02:49:55;2.88;;;0.40;;
37201;SDS011;37799;52.390;6.136;2024-03-02T02:52:20;2.25;;;0.22;;
37201;SDS011;37799;52.390;6.136;2024-03-02T02:54:46;2.42;;;0.40;;
37201;SDS011;37799;52.390;6.136;2024-03-02T02:57:11;2.13;;;0.30;;
37201;SDS011;37799;52.390;6.136;2024-03-02T02:59:37;1.67;;;0.38;;
37201;SDS011;37799;52.390;6.136;2024-03-02T03:02:02;1.67;;;0.30;;
37201;SDS011;37799;52.390;6.136;2024-03-02T03:04:27;2.95;;;0.20;;
37201;SDS011;37799;52.390;6.136;2024-03-02T03:06:52;1.48;;;0.25;;
37201;SDS011;37799;52.390;6.136;2024-03-02T03:09:18;2.40;;;0.40;;
37201;SDS011;37799;52.390;6.136;2024-03-02T03:11:43;1.08;;;0.20;;
37201;SDS011;37799;52.390;6.136;2024-03-02T03:14:09;3.20;;;0.40;;
37201;SDS011;37799;52.390;6.136;2024-03-02T03:16:34;1.92;;;0.30;;
37201;SDS011;37799;52.390;6.136;2024-03-02T03:18:59;2.47;;;0.43;;
37201;SDS011;37799;52.390;6.136;2024-03-02T03:21:25;1.88;;;0.30;;
37201;SDS011;37799;52.390;6.136;2024-03-02T03:23:50;1.77;;;0.32;;
37201;SDS011;37799;52.390;6.136;2024-03-02T03:26:15;2.35;;;0.30;;
37201;SDS011;37799;52.390;6.136;2024-03-02T03:28:41;10.20;;;1.10;;
37201;SDS011;37799;52.390;6.136;2024-03-02T03:31:06;2.10;;;0.17;;
37201;SDS011;37799;52.390;6.136;2024-03-02T03:33:32;1.90;;;0.20;;
37201;SDS011;37799;52.390;6.136;2024-03-02T03:35:57;1.75;;;0.22;;
37201;SDS011;37799;52.390;6.136;2024-03-02T03:38:22;1.95;;;0.30;;
37201;SDS011;37799;52.390;6.136;2024-03-02T03:40:47;0.50;;;0.20;;
37201;SDS011;37799;52.390;6.136;2024-03-02T03:43:13;2.75;;;0.30;;
37201;SDS011;37799;52.390;6.136;2024-03-02T03:45:38;2.47;;;0.30;;
37201;SDS011;37799;52.390;6.136;2024-03-02T03:48:04;1.95;;;0.30;;
37201;SDS011;37799;52.390;6.136;2024-03-02T03:50:29;2.05;;;0.28;;
37201;SDS011;37799;52.390;6.136;2024-03-02T03:52:54;1.02;;;0.20;;
37201;SDS011;37799;52.390;6.136;2024-03-02T03:55:20;2.75;;;0.28;;
37201;SDS011;37799;52.390;6.136;2024-03-02T03:57:45;2.90;;;0.35;;
37201;SDS011;37799;52.390;6.136;2024-03-02T04:00:10;1.33;;;0.30;;
37201;SDS011;37799;52.390;6.136;2024-03-02T04:02:37;1.02;;;0.10;;
37201;SDS011;37799;52.390;6.136;2024-03-02T04:05:04;1.90;;;0.20;;
37201;SDS011;37799;52.390;6.136;2024-03-02T04:07:33;1.52;;;0.10;;
37201;SDS011;37799;52.390;6.136;2024-03-02T04:10:04;1.55;;;0.22;;
37201;SDS011;37799;52.390;6.136;2024-03-02T04:12:29;1.85;;;0.10;;
37201;SDS011;37799;52.390;6.136;2024-03-02T04:14:55;0.80;;;0.10;;
37201;SDS011;37799;52.390;6.136;2024-03-02T04:17:20;1.27;;;0.10;;
37201;SDS011;37799;52.390;6.136;2024-03-02T04:19:45;0.45;;;0.08;;
37201;SDS011;37799;52.390;6.136;2024-03-02T04:22:10;0.52;;;0.10;;
37201;SDS011;37799;52.390;6.136;2024-03-02T04:24:36;0.40;;;0.03;;
37201;SDS011;37799;52.390;6.136;2024-03-02T04:27:01;0.35;;;0.00;;
37201;SDS011;37799;52.390;6.136;2024-03-02T04:29:27;0.28;;;0.00;;
37201;SDS011;37799;52.390;6.136;2024-03-02T04:31:52;0.70;;;0.00;;
37201;SDS011;37799;52.390;6.136;2024-03-02T04:34:18;0.13;;;0.00;;
37201;SDS011;37799;52.390;6.136;2024-03-02T04:36:43;0.55;;;0.00;;
37201;SDS011;37799;52.390;6.136;2024-03-02T04:39:08;0.63;;;0.10;;
37201;SDS011;37799;52.390;6.136;2024-03-02T04:41:34;0.93;;;0.10;;
37201;SDS011;37799;52.390;6.136;2024-03-02T04:44:00;2.35;;;0.10;;
37201;SDS011;37799;52.390;6.136;2024-03-02T04:46:25;1.08;;;0.10;;
37201;SDS011;37799;52.390;6.136;2024-03-02T04:48:50;0.85;;;0.10;;
37201;SDS011;37799;52.390;6.136;2024-03-02T04:51:20;0.45;;;0.10;;
37201;SDS011;37799;52.390;6.136;2024-03-02T04:53:46;1.08;;;0.10;;
37201;SDS011;37799;52.390;6.136;2024-03-02T04:56:11;0.60;;;0.05;;
37201;SDS011;37799;52.390;6.136;2024-03-02T04:59:05;0.47;;;0.05;;
37201;SDS011;37799;52.390;6.136;2024-03-02T05:01:31;1.45;;;0.00;;
37201;SDS011;37799;52.390;6.136;2024-03-02T05:03:56;1.85;;;0.25;;
37201;SDS011;37799;52.390;6.136;2024-03-02T05:06:22;1.48;;;0.10;;
37201;SDS011;37799;52.390;6.136;2024-03-02T05:08:47;0.82;;;0.10;;
37201;SDS011;37799;52.390;6.136;2024-03-02T05:11:13;0.88;;;0.00;;
37201;SDS011;37799;52.390;6.136;2024-03-02T05:14:04;0.95;;;0.10;;
37201;SDS011;37799;52.390;6.136;2024-03-02T05:16:33;1.40;;;0.20;;
37201;SDS011;37799;52.390;6.136;2024-03-02T05:18:59;1.75;;;0.10;;
37201;SDS011;37799;52.390;6.136;2024-03-02T05:21:25;0.17;;;0.00;;
37201;SDS011;37799;52.390;6.136;2024-03-02T05:23:50;0.63;;;0.00;;
37201;SDS011;37799;52.390;6.136;2024-03-02T05:26:15;0.45;;;0.00;;
37201;SDS011;37799;52.390;6.136;2024-03-02T05:28:41;0.63;;;0.10;;
37201;SDS011;37799;52.390;6.136;2024-03-02T05:31:10;1.30;;;0.00;;
37201;SDS011;37799;52.390;6.136;2024-03-02T05:33:37;0.10;;;0.00;;
37201;SDS011;37799;52.390;6.136;2024-03-02T05:36:03;0.13;;;0.00;;
37201;SDS011;37799;52.390;6.136;2024-03-02T05:38:29;1.85;;;0.10;;
37201;SDS011;37799;52.390;6.136;2024-03-02T05:40:54;1.25;;;0.10;;
37201;SDS011;37799;52.390;6.136;2024-03-02T05:43:20;0.17;;;0.00;;
37201;SDS011;37799;52.390;6.136;2024-03-02T05:45:45;0.25;;;0.00;;
37201;SDS011;37799;52.390;6.136;2024-03-02T05:48:10;0.08;;;0.00;;
37201;SDS011;37799;52.390;6.136;2024-03-02T05:50:36;0.52;;;0.08;;
37201;SDS011;37799;52.390;6.136;2024-03-02T05:53:01;0.45;;;0.00;;
37201;SDS011;37799;52.390;6.136;2024-03-02T05:55:26;0.10;;;0.00;;
37201;SDS011;37799;52.390;6.136;2024-03-02T05:57:51;0.80;;;0.00;;
37201;SDS011;37799;52.390;6.136;2024-03-02T06:00:32;0.27;;;0.00;;
37201;SDS011;37799;52.390;6.136;2024-03-02T06:02:58;1.05;;;0.10;;
37201;SDS011;37799;52.390;6.136;2024-03-02T06:05:23;1.00;;;0.10;;
37201;SDS011;37799;52.390;6.136;2024-03-02T06:07:49;0.70;;;0.00;;
37201;SDS011;37799;52.390;6.136;2024-03-02T06:10:15;0.32;;;0.00;;
37201;SDS011;37799;52.390;6.136;2024-03-02T06:12:40;0.10;;;0.00;;
37201;SDS011;37799;52.390;6.136;2024-03-02T06:15:05;1.20;;;0.17;;
37201;SDS011;37799;52.390;6.136;2024-03-02T06:17:31;1.23;;;0.10;;
37201;SDS011;37799;52.390;6.136;2024-03-02T06:19:57;0.17;;;0.00;;
37201;SDS011;37799;52.390;6.136;2024-03-02T06:22:22;0.85;;;0.10;;
37201;SDS011;37799;52.390;6.136;2024-03-02T06:24:49;1.35;;;0.10;;
37201;SDS011;37799;52.390;6.136;2024-03-02T06:27:15;1.50;;;0.05;;
37201;SDS011;37799;52.390;6.136;2024-03-02T06:29:40;0.73;;;0.00;;
37201;SDS011;37799;52.390;6.136;2024-03-02T06:32:05;1.27;;;0.10;;
37201;SDS011;37799;52.390;6.136;2024-03-02T06:34:31;0.35;;;0.10;;
37201;SDS011;37799;52.390;6.136;2024-03-02T06:36:56;0.90;;;0.10;;
37201;SDS011;37799;52.390;6.136;2024-03-02T06:39:21;0.30;;;0.10;;
37201;SDS011;37799;52.390;6.136;2024-03-02T06:41:47;0.50;;;0.10;;
37201;SDS011;37799;52.390;6.136;2024-03-02T06:44:12;0.80;;;0.10;;
37201;SDS011;37799;52.390;6.136;2024-03-02T06:46:38;0.60;;;0.10;;
37201;SDS011;37799;52.390;6.136;2024-03-02T06:49:03;2.05;;;0.10;;
37201;SDS011;37799;52.390;6.136;2024-03-02T06:51:29;1.90;;;0.10;;
37201;SDS011;37799;52.390;6.136;2024-03-02T06:53:55;0.75;;;0.00;;
37201;SDS011;37799;52.390;6.136;2024-03-02T06:56:20;0.57;;;0.00;;
37201;SDS011;37799;52.390;6.136;2024-03-02T06:58:45;3.00;;;0.40;;
37201;SDS011;37799;52.390;6.136;2024-03-02T07:01:11;0.88;;;0.00;;
37201;SDS011;37799;52.390;6.136;2024-03-02T07:03:37;0.50;;;0.10;;
37201;SDS011;37799;52.390;6.136;2024-03-02T07:06:04;0.65;;;0.00;;
37201;SDS011;37799;52.390;6.136;2024-03-02T07:08:29;2.70;;;0.28;;
37201;SDS011;37799;52.390;6.136;2024-03-02T07:10:55;2.83;;;0.20;;
37201;SDS011;37799;52.390;6.136;2024-03-02T07:13:20;2.40;;;0.43;;
37201;SDS011;37799;52.390;6.136;2024-03-02T07:15:45;1.35;;;0.20;;
37201;SDS011;37799;52.390;6.136;2024-03-02T07:18:29;3.60;;;0.47;;
37201;SDS011;37799;52.390;6.136;2024-03-02T07:20:55;6.32;;;1.50;;
37201;SDS011;37799;52.390;6.136;2024-03-02T07:23:23;4.45;;;1.23;;
37201;SDS011;37799;52.390;6.136;2024-03-02T07:25:52;3.53;;;0.60;;
37201;SDS011;37799;52.390;6.136;2024-03-02T07:28:19;2.47;;;0.47;;
37201;SDS011;37799;52.390;6.136;2024-03-02T07:30:45;4.50;;;1.00;;
37201;SDS011;37799;52.390;6.136;2024-03-02T07:33:10;4.53;;;0.82;;
37201;SDS011;37799;52.390;6.136;2024-03-02T07:35:36;9.85;;;2.53;;
37201;SDS011;37799;52.390;6.136;2024-03-02T07:38:01;6.03;;;1.70;;
37201;SDS011;37799;52.390;6.136;2024-03-02T07:40:26;7.32;;;1.70;;
37201;SDS011;37799;52.390;6.136;2024-03-02T07:42:52;2.10;;;0.30;;
37201;SDS011;37799;52.390;6.136;2024-03-02T07:45:17;2.60;;;0.40;;
37201;SDS011;37799;52.390;6.136;2024-03-02T07:47:43;2.50;;;0.20;;
37201;SDS011;37799;52.390;6.136;2024-03-02T07:50:08;1.85;;;0.20;;
37201;SDS011;37799;52.390;6.136;2024-03-02T07:52:34;5.22;;;0.80;;
37201;SDS011;37799;52.390;6.136;2024-03-02T07:54:59;3.38;;;0.57;;
37201;SDS011;37799;52.390;6.136;2024-03-02T07:57:25;3.35;;;0.40;;
37201;SDS011;37799;52.390;6.136;2024-03-02T07:59:50;1.85;;;0.40;;
37201;SDS011;37799;52.390;6.136;2024-03-02T08:02:16;1.85;;;0.30;;
37201;SDS011;37799;52.390;6.136;2024-03-02T08:04:41;1.92;;;0.20;;
37201;SDS011;37799;52.390;6.136;2024-03-02T08:07:06;1.40;;;0.20;;
37201;SDS011;37799;52.390;6.136;2024-03-02T08:09:32;2.50;;;0.25;;
37201;SDS011;37799;52.390;6.136;2024-03-02T08:11:57;1.38;;;0.32;;
37201;SDS011;37799;52.390;6.136;2024-03-02T08:14:23;2.33;;;0.20;;
37201;SDS011;37799;52.390;6.136;2024-03-02T08:16:49;1.30;;;0.20;;
37201;SDS011;37799;52.390;6.136;2024-03-02T08:19:14;2.53;;;0.10;;
37201;SDS011;37799;52.390;6.136;2024-03-02T08:21:40;1.42;;;0.20;;
37201;SDS011;37799;52.390;6.136;2024-03-02T08:24:05;1.65;;;0.20;;
37201;SDS011;37799;52.390;6.136;2024-03-02T08:26:31;2.00;;;0.32;;
37201;SDS011;37799;52.390;6.136;2024-03-02T08:28:57;0.80;;;0.20;;
37201;SDS011;37799;52.390;6.136;2024-03-02T08:31:23;2.97;;;0.30;;
37201;SDS011;37799;52.390;6.136;2024-03-02T08:33:49;1.63;;;0.20;;
37201;SDS011;37799;52.390;6.136;2024-03-02T08:36:14;1.98;;;0.40;;
37201;SDS011;37799;52.390;6.136;2024-03-02T08:38:40;0.98;;;0.20;;
37201;SDS011;37799;52.390;6.136;2024-03-02T08:41:06;2.88;;;0.30;;
37201;SDS011;37799;52.390;6.136;2024-03-02T08:43:32;2.38;;;0.35;;
37201;SDS011;37799;52.390;6.136;2024-03-02T08:45:58;3.90;;;0.28;;
37201;SDS011;37799;52.390;6.136;2024-03-02T08:48:23;2.45;;;0.28;;
37201;SDS011;37799;52.390;6.136;2024-03-02T08:50:49;2.83;;;0.20;;
37201;SDS011;37799;52.390;6.136;2024-03-02T08:53:14;2.58;;;0.10;;
37201;SDS011;37799;52.390;6.136;2024-03-02T08:55:43;3.22;;;0.60;;
37201;SDS011;37799;52.390;6.136;2024-03-02T08:58:09;2.75;;;0.10;;
37201;SDS011;37799;52.390;6.136;2024-03-02T09:00:35;1.52;;;0.20;;
37201;SDS011;37799;52.390;6.136;2024-03-02T09:03:00;2.38;;;0.50;;
37201;SDS011;37799;52.390;6.136;2024-03-02T09:05:25;3.38;;;0.10;;
37201;SDS011;37799;52.390;6.136;2024-03-02T09:07:51;1.30;;;0.20;;
37201;SDS011;37799;52.390;6.136;2024-03-02T09:10:16;1.30;;;0.13;;
37201;SDS011;37799;52.390;6.136;2024-03-02T09:12:41;1.40;;;0.22;;
37201;SDS011;37799;52.390;6.136;2024-03-02T09:15:08;1.70;;;0.22;;
37201;SDS011;37799;52.390;6.136;2024-03-02T09:17:33;4.72;;;0.38;;
37201;SDS011;37799;52.390;6.136;2024-03-02T09:19:59;1.42;;;0.10;;
37201;SDS011;37799;52.390;6.136;2024-03-02T09:22:24;2.60;;;0.22;;
37201;SDS011;37799;52.390;6.136;2024-03-02T09:24:49;5.50;;;0.40;;
37201;SDS011;37799;52.390;6.136;2024-03-02T09:27:15;2.83;;;0.40;;
37201;SDS011;37799;52.390;6.136;2024-03-02T09:29:40;2.60;;;0.40;;
37201;SDS011;37799;52.390;6.136;2024-03-02T09:34:33;2.03;;;0.32;;
37201;SDS011;37799;52.390;6.136;2024-03-02T09:36:59;2.83;;;0.30;;
37201;SDS011;37799;52.390;6.136;2024-03-02T09:39:24;1.40;;;0.10;;
37201;SDS011;37799;52.390;6.136;2024-03-02T09:41:52;3.30;;;0.10;;
37201;SDS011;37799;52.390;6.136;2024-03-02T09:44:19;1.23;;;0.10;;
37201;SDS011;37799;52.390;6.136;2024-03-02T09:46:48;1.42;;;0.20;;
37201;SDS011;37799;52.390;6.136;2024-03-02T09:49:14;1.75;;;0.03;;
37201;SDS011;37799;52.390;6.136;2024-03-02T09:51:39;3.08;;;0.10;;
37201;SDS011;37799;52.390;6.136;2024-03-02T09:54:07;1.08;;;0.32;;
37201;SDS011;37799;52.390;6.136;2024-03-02T09:56:33;1.55;;;0.05;;
37201;SDS011;37799;52.390;6.136;2024-03-02T09:58:59;1.70;;;0.10;;
37201;SDS011;37799;52.390;6.136;2024-03-02T10:01:24;2.13;;;0.20;;
37201;SDS011;37799;52.390;6.136;2024-03-02T10:03:52;3.85;;;0.10;;
37201;SDS011;37799;52.390;6.136;2024-03-02T10:06:19;1.45;;;0.13;;
37201;SDS011;37799;52.390;6.136;2024-03-02T10:08:45;2.85;;;0.28;;
37201;SDS011;37799;52.390;6.136;2024-03-02T10:11:11;1.40;;;0.30;;
37201;SDS011;37799;52.390;6.136;2024-03-02T10:13:50;1.50;;;0.30;;
37201;SDS011;37799;52.390;6.136;2024-03-02T10:16:15;7.53;;;0.30;;
37201;SDS011;37799;52.390;6.136;2024-03-02T10:18:42;1.58;;;0.28;;
37201;SDS011;37799;52.390;6.136;2024-03-02T10:21:13;4.20;;;0.20;;
37201;SDS011;37799;52.390;6.136;2024-03-02T10:23:39;2.20;;;0.30;;
37201;SDS011;37799;52.390;6.136;2024-03-02T10:26:16;3.28;;;0.50;;
37201;SDS011;37799;52.390;6.136;2024-03-02T10:28:46;3.60;;;0.47;;
37201;SDS011;37799;52.390;6.136;2024-03-02T10:31:12;4.38;;;0.45;;
37201;SDS011;37799;52.390;6.136;2024-03-02T10:33:38;2.03;;;0.20;;
37201;SDS011;37799;52.390;6.136;2024-03-02T10:36:04;1.20;;;0.13;;
37201;SDS011;37799;52.390;6.136;2024-03-02T10:38:30;3.45;;;0.40;;
37201;SDS011;37799;52.390;6.136;2024-03-02T10:40:56;1.38;;;0.20;;
37201;SDS011;37799;52.390;6.136;2024-03-02T10:43:24;1.95;;;0.45;;
37201;SDS011;37799;52.390;6.136;2024-03-02T10:45:51;5.20;;;0.40;;
37201;SDS011;37799;52.390;6.136;2024-03-02T10:48:17;2.55;;;0.55;;
37201;SDS011;37799;52.390;6.136;2024-03-02T10:50:43;2.30;;;0.15;;
37201;SDS011;37799;52.390;6.136;2024-03-02T10:53:08;1.25;;;0.10;;
37201;SDS011;37799;52.390;6.136;2024-03-02T10:55:33;3.35;;;0.55;;
37201;SDS011;37799;52.390;6.136;2024-03-02T10:57:59;3.03;;;0.40;;
37201;SDS011;37799;52.390;6.136;2024-03-02T11:00:28;2.03;;;0.20;;
37201;SDS011;37799;52.390;6.136;2024-03-02T11:03:00;4.55;;;0.47;;
37201;SDS011;37799;52.390;6.136;2024-03-02T11:05:35;2.35;;;0.30;;
37201;SDS011;37799;52.390;6.136;2024-03-02T11:08:02;2.78;;;0.20;;
37201;SDS011;37799;52.390;6.136;2024-03-02T11:10:38;2.63;;;0.32;;
37201;SDS011;37799;52.390;6.136;2024-03-02T11:13:12;1.33;;;0.10;;
37201;SDS011;37799;52.390;6.136;2024-03-02T11:15:37;2.22;;;0.15;;
37201;SDS011;37799;52.390;6.136;2024-03-02T11:18:05;2.88;;;0.20;;
37201;SDS011;37799;52.390;6.136;2024-03-02T11:20:36;2.72;;;0.10;;
37201;SDS011;37799;52.390;6.136;2024-03-02T11:23:07;2.30;;;0.20;;
37201;SDS011;37799;52.390;6.136;2024-03-02T11:25:33;1.35;;;0.20;;
37201;SDS011;37799;52.390;6.136;2024-03-02T11:28:00;3.22;;;0.10;;
37201;SDS011;37799;52.390;6.136;2024-03-02T11:33:01;1.50;;;0.10;;
37201;SDS011;37799;52.390;6.136;2024-03-02T11:35:42;2.58;;;0.30;;
37201;SDS011;37799;52.390;6.136;2024-03-02T11:38:13;1.65;;;0.30;;
37201;SDS011;37799;52.390;6.136;2024-03-02T11:40:38;2.92;;;0.35;;
37201;SDS011;37799;52.390;6.136;2024-03-02T11:43:04;4.78;;;0.60;;
37201;SDS011;37799;52.390;6.136;2024-03-02T11:45:31;3.78;;;0.50;;
37201;SDS011;37799;52.390;6.136;2024-03-02T11:47:58;2.28;;;0.32;;
37201;SDS011;37799;52.390;6.136;2024-03-02T11:50:30;2.47;;;0.17;;
37201;SDS011;37799;52.390;6.136;2024-03-02T11:53:00;5.85;;;0.20;;
37201;SDS011;37799;52.390;6.136;2024-03-02T11:55:26;5.40;;;1.02;;
37201;SDS011;37799;52.390;6.136;2024-03-02T11:57:54;2.95;;;0.40;;
37201;SDS011;37799;52.390;6.136;2024-03-02T12:00:20;1.90;;;0.30;;
37201;SDS011;37799;52.390;6.136;2024-03-02T12:02:46;2.08;;;0.20;;
37201;SDS011;37799;52.390;6.136;2024-03-02T12:05:14;3.60;;;0.30;;
37201;SDS011;37799;52.390;6.136;2024-03-02T12:07:41;2.05;;;0.20;;
37201;SDS011;37799;52.390;6.136;2024-03-02T12:10:08;2.00;;;0.20;;
37201;SDS011;37799;52.390;6.136;2024-03-02T12:12:33;2.90;;;0.35;;
37201;SDS011;37799;52.390;6.136;2024-03-02T12:14:59;2.23;;;0.20;;
37201;SDS011;37799;52.390;6.136;2024-03-02T12:17:25;1.67;;;0.20;;
37201;SDS011;37799;52.390;6.136;2024-03-02T12:19:51;2.15;;;0.30;;
37201;SDS011;37799;52.390;6.136;2024-03-02T12:22:16;2.38;;;0.38;;
37201;SDS011;37799;52.390;6.136;2024-03-02T12:24:42;1.67;;;0.30;;
37201;SDS011;37799;52.390;6.136;2024-03-02T12:27:10;2.30;;;0.17;;
37201;SDS011;37799;52.390;6.136;2024-03-02T12:29:37;2.15;;;0.30;;
37201;SDS011;37799;52.390;6.136;2024-03-02T12:32:03;1.73;;;0.20;;
37201;SDS011;37799;52.390;6.136;2024-03-02T12:34:30;1.67;;;0.32;;
37201;SDS011;37799;52.390;6.136;2024-03-02T12:36:56;1.95;;;0.20;;
37201;SDS011;37799;52.390;6.136;2024-03-02T12:39:22;1.92;;;0.20;;
37201;SDS011;37799;52.390;6.136;2024-03-02T12:41:48;2.03;;;0.30;;
37201;SDS011;37799;52.390;6.136;2024-03-02T12:44:15;3.15;;;0.17;;
37201;SDS011;37799;52.390;6.136;2024-03-02T12:46:41;1.35;;;0.17;;
37201;SDS011;37799;52.390;6.136;2024-03-02T12:49:10;3.33;;;0.20;;
37201;SDS011;37799;52.390;6.136;2024-03-02T12:51:38;2.28;;;0.20;;
37201;SDS011;37799;52.390;6.136;2024-03-02T12:54:05;1.58;;;0.10;;
37201;SDS011;37799;52.390;6.136;2024-03-02T12:56:37;1.48;;;0.15;;
37201;SDS011;37799;52.390;6.136;2024-03-02T12:59:03;2.15;;;0.22;;
37201;SDS011;37799;52.390;6.136;2024-03-02T13:01:29;3.40;;;0.20;;
37201;SDS011;37799;52.390;6.136;2024-03-02T13:03:55;2.08;;;0.30;;
37201;SDS011;37799;52.390;6.136;2024-03-02T13:06:22;1.75;;;0.20;;
37201;SDS011;37799;52.390;6.136;2024-03-02T13:08:48;1.55;;;0.20;;
37201;SDS011;37799;52.390;6.136;2024-03-02T13:11:14;2.40;;;0.20;;
37201;SDS011;37799;52.390;6.136;2024-03-02T13:13:41;1.85;;;0.20;;
37201;SDS011;37799;52.390;6.136;2024-03-02T13:16:10;2.17;;;0.20;;
37201;SDS011;37799;52.390;6.136;2024-03-02T13:18:36;2.45;;;0.20;;
37201;SDS011;37799;52.390;6.136;2024-03-02T13:21:01;3.25;;;0.45;;
37201;SDS011;37799;52.390;6.136;2024-03-02T13:23:27;2.10;;;0.30;;
37201;SDS011;37799;52.390;6.136;2024-03-02T13:25:55;5.38;;;0.70;;
37201;SDS011;37799;52.390;6.136;2024-03-02T13:28:21;2.55;;;0.43;;
37201;SDS011;37799;52.390;6.136;2024-03-02T13:30:48;4.38;;;0.60;;
37201;SDS011;37799;52.390;6.136;2024-03-02T13:33:14;2.50;;;0.32;;
37201;SDS011;37799;52.390;6.136;2024-03-02T13:35:40;6.25;;;0.85;;
37201;SDS011;37799;52.390;6.136;2024-03-02T13:38:05;7.30;;;0.70;;
37201;SDS011;37799;52.390;6.136;2024-03-02T13:40:30;2.30;;;0.35;;
37201;SDS011;37799;52.390;6.136;2024-03-02T13:43:01;3.17;;;0.50;;
37201;SDS011;37799;52.390;6.136;2024-03-02T13:45:27;3.20;;;0.70;;
37201;SDS011;37799;52.390;6.136;2024-03-02T13:47:53;3.72;;;0.63;;
37201;SDS011;37799;52.390;6.136;2024-03-02T13:50:18;2.78;;;0.30;;
37201;SDS011;37799;52.390;6.136;2024-03-02T13:52:44;3.55;;;0.50;;
37201;SDS011;37799;52.390;6.136;2024-03-02T13:55:10;1.30;;;0.40;;
37201;SDS011;37799;52.390;6.136;2024-03-02T13:57:35;3.22;;;0.52;;
37201;SDS011;37799;52.390;6.136;2024-03-02T14:00:00;2.63;;;0.50;;
37201;SDS011;37799;52.390;6.136;2024-03-02T14:02:27;2.92;;;0.50;;
37201;SDS011;37799;52.390;6.136;2024-03-02T14:04:53;1.60;;;0.30;;
37201;SDS011;37799;52.390;6.136;2024-03-02T14:07:18;2.90;;;0.52;;
37201;SDS011;37799;52.390;6.136;2024-03-02T14:09:44;2.60;;;0.38;;
37201;SDS011;37799;52.390;6.136;2024-03-02T14:12:10;2.38;;;0.40;;
37201;SDS011;37799;52.390;6.136;2024-03-02T14:14:35;3.97;;;0.60;;
37201;SDS011;37799;52.390;6.136;2024-03-02T14:17:01;2.30;;;0.30;;
37201;SDS011;37799;52.390;6.136;2024-03-02T14:19:31;2.42;;;0.25;;
37201;SDS011;37799;52.390;6.136;2024-03-02T14:21:57;2.03;;;0.30;;
37201;SDS011;37799;52.390;6.136;2024-03-02T14:24:22;2.65;;;0.57;;
37201;SDS011;37799;52.390;6.136;2024-03-02T14:26:50;2.40;;;0.30;;
37201;SDS011;37799;52.390;6.136;2024-03-02T14:29:16;2.90;;;0.38;;
37201;SDS011;37799;52.390;6.136;2024-03-02T14:31:41;3.40;;;0.30;;
37201;SDS011;37799;52.390;6.136;2024-03-02T14:34:07;2.28;;;0.35;;
37201;SDS011;37799;52.390;6.136;2024-03-02T14:36:32;4.28;;;0.40;;
37201;SDS011;37799;52.390;6.136;2024-03-02T14:38:57;5.72;;;0.60;;
37201;SDS011;37799;52.390;6.136;2024-03-02T14:41:23;2.75;;;0.47;;
37201;SDS011;37799;52.390;6.136;2024-03-02T14:43:49;3.10;;;0.60;;
37201;SDS011;37799;52.390;6.136;2024-03-02T14:46:14;3.72;;;0.50;;
37201;SDS011;37799;52.390;6.136;2024-03-02T14:48:41;2.25;;;0.40;;
37201;SDS011;37799;52.390;6.136;2024-03-02T14:51:06;2.08;;;0.52;;
37201;SDS011;37799;52.390;6.136;2024-03-02T14:53:31;2.60;;;0.57;;